Destinations Amsterdam Airport Schiphol

Amsterdam Airport Schiphol (EHAM / AMS)

Flights to Amsterdam Airport Schiphol

Flight number From ETE Dispatch
SPY-2218 EGFF Cardiff International Airport 01:20
SPY-4306 EIDW Dublin Airport 01:40

Flights from Amsterdam Airport Schiphol

Flight number To ETE Dispatch
SPY-2219 EGFF Cardiff International Airport 01:20
SPY-4307 EIDW Dublin Airport 01:50
About

Amsterdam Airport Schiphol facts

Amsterdam Airport Schiphol is located in Amsterdam at an elevation of -3.4 meters or -11 feet.

Currently, Speedy Airlines serves 4 flights to and from Amsterdam Airport Schiphol.

Detailed airport info

Route map

Weather

Current weather

METAR

METAR

Metar data retrieved Sunday, 21 July 2024 at 20:25 UTC

EHAM 211955Z 30009KT 9999 FEW010 18/16 Q1012 NOSIG
Wind Temperature
9 kt 18c